Bookmark and Share
Track history (hours):
 

Carnival Victory

Operator: Carnival Cruise Lines

Last reported at 2014-Apr-18 07:00 UTC. Time now 2014-Apr-18 18:10 UTC.
Position N 23°18' W 073°12'.

Type: Ship. MMSI: 355263000.

Wind from 090 at 27 knots

Waves 0.5 meters (2 feet), 5 second period

Barometer 1016.0 mb
Air temperature 25.0 ° C
Visibility: greater than 5.4 NM
Dewpoint 19.0 ° C
Water temperature 28.0 ° C

NotesDate/timePositionNaut miles runAvg speedWind from/ knotsBaromVisibWave heightAir tempDewpointWater temp
2014-Apr-18 07:00N 23°18' W 073°12'16313.6 090 / 271016.0 5.4 0.525.019.028.0
2014-Apr-17 19:00N 21°24' W 071°06'349 9.7 170 / 91013.0 5.4 25.022.029.0
2014-Apr-16 07:00N 25°12' W 075°54'77 6.4 290 / 261013.0 5.4 25.022.028.0
2014-Apr-15 19:00N 25°00' W 077°18'49 4.1 230 / 151015.0 5.4 26.023.029.0
2014-Apr-15 07:00N 25°48' W 077°30'4312.4 260 / 231013.0 5.4 0.524.020.027.0
2014-Apr-15 03:32N 26°06' W 078°13'1414.6
2014-Apr-15 02:33N 26°09' W 078°29'1514.7
2014-Apr-15 01:33N 26°13' W 078°44'1515.4
2014-Apr-15 00:33N 26°17' W 079°01'1515.3
2014-Apr-14 23:34N 26°13' W 079°17'1716.8
2014-Apr-14 22:34N 26°05' W 079°34'1817.7
2014-Apr-14 21:34N 25°54' W 079°50'1615.8
2014-Apr-14 20:34N 25°46' W 080°05'5 5.1
2014-Apr-14 19:33N 25°47' W 080°10'0 0.0
2014-Apr-14 18:32N 25°47' W 080°10'0 0.0
2014-Apr-14 17:32N 25°47' W 080°10'0 0.0
2014-Apr-14 16:31N 25°47' W 080°10'0 0.0
2014-Apr-14 14:33N 25°47' W 080°10'0 0.0
2014-Apr-14 13:33N 25°47' W 080°10'0 0.0
2014-Apr-14 11:32N 25°47' W 080°10'0 0.0
2014-Apr-14 10:32N 25°47' W 080°10'0 0.0
2014-Apr-14 09:31N 25°47' W 080°10'0 0.4
2014-Apr-14 08:33N 25°47' W 080°10'9 9.2
2014-Apr-14 07:33N 25°43' W 080°00'1313.0
2014-Apr-14 06:33N 25°30' W 079°57'357 7.5
2014-Apr-12 07:00N 22°00' W 085°12'27411.4 360 / 271013.0 5.4 3.025.021.026.0
2014-Apr-11 07:00N 24°18' W 080°54'8010.7 020 / 131018.0 5.4 24.018.026.0
2014-Apr-10 23:31N 25°21' W 079°59'1213.1
2014-Apr-10 22:33N 25°33' W 079°57'1313.1
2014-Apr-10 21:33N 25°45' W 080°03'6 6.3
2014-Apr-10 20:33N 25°47' W 080°10'0 0.0
2014-Apr-10 19:32N 25°47' W 080°10'0 0.0
2014-Apr-10 18:32N 25°47' W 080°10'0 0.0
2014-Apr-10 17:32N 25°47' W 080°10'0 0.0
2014-Apr-10 16:31N 25°47' W 080°10'0 0.0
2014-Apr-10 15:31N 25°47' W 080°10'0 0.0
2014-Apr-10 14:33N 25°47' W 080°10'0 0.0
2014-Apr-10 13:33N 25°47' W 080°10'0 0.0
2014-Apr-10 12:32N 25°47' W 080°10'0 0.0
2014-Apr-10 11:32N 25°47' W 080°10'0 0.0
2014-Apr-10 10:32N 25°47' W 080°10'0 0.1
2014-Apr-10 09:33N 25°47' W 080°10'9 9.5
2014-Apr-10 08:33N 25°42' W 080°01'1514.8
2014-Apr-10 07:32N 25°27' W 079°58'189351.2
2014-Apr-10 07:00N 25°06' W 076°30'43818.3 120 / 191018.0 5.4 0.524.016.026.0
2014-Apr-09 07:00N 19°18' W 081°18'   270 / 101013.0 5.4 0.524.018.028.0

Dump ship's entire track history

sailing weather and tide predictions

Carnival Victory — 3FFL8 — position and weather